wu historisk txt - vejr3
d.9/8 - Husk at se Meteorsværmen Perseiderne, op mod 110 stjerneskud i timen


Vejr3>N more information Vejr3>N


Vejr3>V more information Vejr3>V


3 timers nedbørs radar more information rain snow radar


besøg nogle andre vejrsider:

Template dokumentation
og downloads

And another site


Select another period ( hide this area )

enheder periode Custom range Directly to
metrisk engelsk både
dagens ugenligt månedlig årligt
use both date-selectors for a custom range
forgående dag
With this date

WeatherUnderground graphs for this period ( click here )


dagens sammenfatning af torsdag 16 august 2018
tid Temp. ( °C ) Dew pt. ( °C ) vind ( km/h ) fra vindstød ( km/h ) lufttryk ( hPa ) Humid.( % ) Rainrate ( cm ) solenergi ( W/m2 )
høj25,4 18,7 37,0 sø ( 1648/4205 ) 24,3 1015,4 94 - 821
gennemsnit21,1 16,6 17,7 sø #98/238 10,3 1013,7 77 - 265 #167/238
lav16,6 15,1 3,7   0,8 1011,6 55 -  
dagens Tabular details for torsdag 16 august 2018
tid Temp. ( °C ) Dew pt. ( °C ) vind ( km/h ) fra vindstød ( km/h ) lufttryk ( hPa ) Humid.( % ) Rainrate ( cm ) solenergi ( W/m2 )
00:04 17,1 15,6 3,7 0,8 1015,0 91 - -
00:07 17,0 15,5 4,8 2,4 1015,1 91 - -
00:14 16,9 15,4 3,7 syd 0,8 1015,2 91 - -
00:19 16,9 15,4 4,8 ssø 1,8 1015,1 91 - -
00:24 16,8 15,5 5,6 ssø 4,3 1015,2 92 - -
00:29 16,8 15,5 7,4 4,8 1015,2 92 - -
00:34 16,8 15,5 7,4 ssø 5,5 1015,2 92 - -
00:39 16,8 15,7 7,4 4,5 1015,2 93 - -
00:44 16,8 15,7 5,6 2,9 1015,2 93 - -
00:49 16,7 15,4 6,4 ssø 4,0 1015,2 92 - -
00:54 16,7 15,6 5,6 4,3 1015,3 93 - -
00:59 16,6 15,5 5,6 ssø 2,1 1015,3 93 - -
01:04 16,6 15,4 5,6 ssø 2,9 1015,3 93 - -
01:09 16,6 15,7 5,6 1,6 1015,4 94 - -
01:14 16,7 15,7 5,6 ssø 1,3 1015,4 94 - -
01:19 16,7 15,8 5,6 ssø 2,7 1015,4 94 - -
01:24 16,8 15,8 8,0 ssø 6,4 1015,3 94 - -
01:29 16,8 15,7 6,4 4,0 1015,4 93 - -
01:34 16,8 15,7 5,6 5,0 1015,3 93 - -
01:39 16,9 15,9 5,6 ssø 5,5 1015,3 94 - -
01:44 16,9 15,9 5,6 2,9 1015,3 94 - -
01:49 16,9 15,9 5,6 ssø 2,6 1015,2 94 - -
01:54 17,0 16,0 5,6 øsø 3,5 1015,1 94 - -
01:59 17,1 15,9 5,6 ssø 3,2 1015,1 93 - -
02:04 17,1 15,9 5,6 3,1 1014,9 93 - -
02:09 17,1 15,9 4,8 øsø 2,9 1014,9 93 - -
02:14 17,1 15,9 6,4 4,8 1015,0 93 - -
02:19 17,1 15,9 6,4 ssø 4,2 1015,0 93 - -
02:24 17,1 15,9 7,4 ssø 5,6 1015,0 93 - -
02:29 17,2 16,0 9,7 6,4 1015,0 93 - -
02:34 17,2 16,0 11,1 ssø 7,6 1014,9 93 - -
02:39 17,2 16,1 7,4 ssø 4,5 1014,9 93 - -
02:44 17,3 16,1 4,8 2,9 1014,9 93 - -
02:49 17,3 16,1 6,4 4,5 1014,9 93 - -
02:54 17,3 16,2 8,0 ssø 7,6 1014,9 93 - -
02:59 17,3 16,2 6,4 ssø 3,4 1014,9 93 - -
03:04 17,3 16,0 5,6 ssø 1,6 1014,9 92 - -
03:09 17,3 16,0 8,0 6,0 1014,8 92 - -
03:14 17,4 16,1 7,4 2,1 1014,9 92 - -
03:19 17,4 16,1 5,6 4,2 1014,9 92 - -
03:24 17,4 16,1 9,7 ssø 5,1 1014,9 92 - -
03:29 17,4 16,1 6,4 3,4 1014,9 92 - -
03:34 17,4 16,1 7,4 4,0 1014,9 92 - -
03:39 17,5 16,2 6,4 øsø 3,4 1014,9 92 - -
03:44 17,5 16,2 8,0 6,3 1014,9 92 - -
03:49 17,5 16,2 9,7 6,1 1014,9 92 - -
03:54 17,6 16,4 8,0 ssø 4,8 1014,9 93 - -
03:59 17,6 16,4 7,4 5,8 1014,9 93 - -
04:04 17,6 16,4 11,1 7,6 1014,8 93 - -
04:09 17,7 16,3 16,7 6,3 1014,9 92 - -
04:14 17,7 16,3 11,1 8,4 1014,8 92 - -
04:19 17,7 16,4 14,8 10,3 1014,7 92 - -
04:24 17,8 16,3 9,3 ssø 7,1 1014,7 91 - -
04:29 17,8 16,3 16,7 9,5 1014,8 91 - -
04:34 17,9 16,2 14,8 9,3 1014,6 90 - -
04:39 17,9 16,3 16,1 7,1 1014,6 90 - -
04:44 17,9 16,1 16,7 12,4 1014,6 89 - -
04:49 18,0 16,2 20,4 ssø 12,7 1014,6 89 - -
04:54 18,1 16,1 16,7 8,5 1014,7 88 - -
04:59 18,2 16,2 18,5 øsø 10,9 1014,7 88 - -
05:04 18,2 16,3 14,8 ssø 10,6 1014,6 89 - -
05:09 18,2 16,5 16,7 øsø 10,1 1014,6 90 - -
05:14 18,1 16,4 14,8 ssø 10,9 1014,6 90 - -
05:19 18,0 16,3 11,3 øsø 6,6 1014,6 90 - -
05:24 18,0 16,3 16,7 8,4 1014,6 90 - -
05:29 17,9 16,3 11,1 øsø 6,1 1014,5 90 - -
05:34 17,9 16,2 9,7 øsø 5,6 1014,5 90 - -
05:39 17,9 16,2 9,3 6,1 1014,5 90 - -
05:44 17,8 16,2 11,3 øsø 6,1 1014,4 90 - -
05:49 17,8 16,2 11,1 øsø 6,0 1014,4 90 - -
05:54 17,8 16,2 9,3 5,6 1014,3 90 - -
05:59 17,8 16,2 12,9 7,1 1014,3 90 - 5
06:04 17,8 16,2 9,7 7,1 1014,3 90 - 7
06:09 17,8 16,2 14,8 6,1 1014,3 90 - 9
06:14 17,9 16,2 18,5 øsø 9,7 1014,3 90 - 11
06:19 18,0 16,5 18,5 ssø 12,1 1014,3 91 - 16
06:24 18,1 16,6 18,5 10,1 1014,3 91 - 18
06:29 18,2 16,7 16,7 13,7 1014,3 91 - 19
06:34 18,3 16,8 27,4 15,8 1014,3 91 - 26
06:39 18,3 16,7 19,3 12,1 1014,3 90 - 32
06:44 18,4 16,7 18,5 øsø 10,5 1014,2 90 - 35
06:49 18,4 16,7 18,5 øsø 11,6 1014,2 90 - 33
06:54 18,4 16,7 16,7 ssø 10,5 1014,3 90 - 35
06:59 18,4 16,9 20,4 øsø 12,4 1014,3 91 - 46
07:04 18,3 16,8 17,7 10,3 1014,3 91 - 54
07:09 18,4 16,9 18,5 øsø 9,2 1014,3 91 - 76
07:14 18,4 16,9 14,8 7,2 1014,4 91 - 60
07:19 18,5 17,0 18,5 12,2 1014,3 91 - 65
07:24 18,5 17,0 16,7 8,2 1014,3 91 - 79
07:29 18,6 17,1 11,1 8,5 1014,3 91 - 77
07:34 18,7 17,3 18,5 10,9 1014,3 92 - 86
07:39 18,7 17,3 22,2 11,4 1014,2 92 - 116
07:44 18,8 17,5 19,3 10,8 1014,2 92 - 116
07:49 18,9 17,4 20,4 øsø 13,4 1014,2 91 - 123
07:54 19,1 17,6 16,7 11,4 1014,3 91 - 113
07:59 19,2 17,7 16,7 ssø 9,7 1014,2 91 - 132
08:04 19,3 17,8 18,5 syd 10,1 1014,3 91 - 142
08:09 19,4 17,7 18,5 ssø 8,5 1014,3 90 - 155
08:14 19,6 17,9 14,8 8,7 1014,2 90 - 183
08:19 19,7 18,0 14,8 10,1 1014,2 90 - 211
08:24 19,8 17,9 20,4 ssø 13,0 1014,2 89 - 169
08:29 20,0 18,1 18,5 10,1 1014,2 89 - 149
08:34 20,1 18,1 18,5 10,8 1014,2 88 - 137
08:39 20,2 18,1 14,8 syd 8,7 1014,2 88 - 156
08:44 20,3 18,2 9,7 7,9 1014,1 88 - 128
08:49 20,3 18,3 16,7 ssø 5,5 1014,1 88 - 97
08:54 20,3 18,1 14,8 øsø 8,5 1014,1 87 - 62
08:59 20,3 18,1 16,7 syd 9,2 1014,2 87 - 49
09:04 20,3 18,1 16,7 ssø 8,2 1014,2 87 - 95
09:09 20,3 18,1 17,7 ssø 10,1 1014,1 87 - 123
09:14 20,3 18,1 14,8 7,6 1014,1 87 - 141
09:19 20,4 18,2 14,8 øsø 7,6 1014,1 87 - 167
09:24 20,4 18,0 18,5 ssø 11,9 1014,1 86 - 146
09:29 20,6 18,1 11,3 6,3 1014,1 86 - 141
09:34 20,6 18,2 14,8 ssø 6,4 1014,1 86 - 167
09:39 20,7 18,1 18,5 syd 9,7 1014,1 85 - 127
09:44 20,7 18,3 14,8 ssø 7,4 1014,1 86 - 109
09:49 20,7 18,3 16,7 ssø 8,4 1014,1 86 - 76
09:54 20,7 18,1 14,8 9,2 1014,1 85 - 181
09:59 20,8 18,3 14,8 ssø 9,0 1014,0 86 - 195
10:04 20,9 18,3 16,7 ssø 10,1 1014,0 85 - 195
10:09 21,0 18,4 14,8 ssø 8,4 1014,0 85 - 248
10:14 21,2 18,6 20,4 ssø 7,1 1013,9 85 - 234
10:19 21,3 18,7 18,5 10,3 1013,9 85 - 206
10:24 21,4 18,6 18,5 ssø 8,5 1013,9 84 - 197
10:29 21,4 18,6 18,5 ssø 12,4 1013,9 84 - 220
10:34 21,4 18,4 20,9 9,7 1013,9 83 - 192
10:39 21,4 18,2 25,9 12,2 1013,9 82 - 209
10:44 21,4 18,2 20,4 10,3 1013,8 82 - 200
10:49 21,5 18,3 20,9 10,8 1013,8 82 - 229
10:54 21,5 17,9 22,5 ssø 16,9 1013,8 80 - 230
10:59 21,6 18,0 25,9 ssø 7,2 1013,8 80 - 232
11:04 21,7 18,1 17,7 syd 10,0 1013,7 80 - 227
11:09 21,8 18,2 24,1 øsø 11,1 1013,7 80 - 243
11:14 21,9 17,7 18,5 ssø 13,5 1013,6 77 - 304
11:19 22,1 17,8 22,2 15,0 1013,6 77 - 374
11:24 22,3 17,9 18,5 14,6 1013,6 76 - 527
11:29 22,7 18,2 22,2 øsø 14,3 1013,6 76 - 439
11:34 22,9 18,1 27,8 11,3 1013,5 74 - 752
11:39 23,1 17,9 27,8 øsø 15,1 1013,5 73 - 450
11:44 23,1 18,2 24,1 18,0 1013,4 74 - 406
11:49 23,1 18,2 14,8 ssø 9,7 1013,4 74 - 274
11:54 23,1 17,9 22,2 15,6 1013,4 73 - 193
11:59 22,9 17,8 20,4 ssø 13,8 1013,4 73 - 125
12:04 22,8 17,9 16,7 syd 9,2 1013,4 74 - 204
12:09 23,0 18,3 16,7 øsø 5,1 1013,3 75 - 745
12:14 23,3 17,9 22,2 ssø 9,5 1013,2 72 - 206
12:19 23,3 17,7 20,9 ssø 13,7 1013,2 71 - 355
12:24 23,4 18,1 18,5 ssø 10,8 1013,2 72 - 309
12:29 23,5 17,7 29,6 ssø 19,5 1013,2 70 - 555
12:34 23,6 17,8 16,7 9,2 1013,1 70 - 315
12:39 23,7 17,7 25,9 ssø 14,5 1013,2 69 - 274
12:44 23,6 17,3 22,2 8,0 1013,1 68 - 229
12:49 23,6 17,6 19,3 syd 13,4 1013,0 69 - 306
12:54 23,7 17,2 31,5 21,7 1013,1 67 - 311
12:59 23,8 17,3 20,9 ssø 15,3 1013,1 67 - 295
13:04 23,8 17,3 18,5 ssø 15,4 1013,1 67 - 262
13:09 23,9 17,7 18,5 ssø 13,5 1013,0 68 - 694
13:14 24,2 17,4 27,4 ssø 15,8 1013,1 66 - 554
13:19 24,2 17,2 31,5 19,1 1013,1 65 - 325
13:24 24,1 17,1 33,3 øst 14,2 1013,0 65 - 378
13:29 24,2 17,7 13,0 8,8 1013,1 67 - 260
13:34 24,3 17,3 20,4 øsø 11,6 1013,1 65 - 454
13:39 24,4 16,9 35,2 20,4 1013,1 63 - 348
13:44 24,4 16,9 32,2 syd 17,7 1013,1 63 - 425
13:49 24,3 16,3 31,5 17,9 1013,0 61 - 341
13:54 24,3 16,1 29,6 17,2 1013,1 60 - 267
13:59 24,6 16,6 31,5 syd 19,6 1013,0 61 - 698
14:04 24,8 16,2 29,6 øsø 15,8 1012,9 59 - 710
14:09 25,1 16,5 22,2 ssø 13,8 1012,9 59 - 747
14:14 25,2 16,3 32,2 ssø 23,8 1013,0 58 - 766
14:19 25,2 16,1 30,6 syd 17,5 1012,9 57 - 821
14:24 25,2 16,1 37,0 21,9 1013,0 57 - 686
14:29 25,3 16,2 24,1 ssø 21,4 1012,9 57 - 573
14:34 25,3 16,2 35,2 16,6 1012,9 57 - 763
14:39 25,3 16,4 33,3 syd 20,0 1012,8 58 - 752
14:44 25,3 16,7 24,1 ssø 14,3 1012,8 59 - 712
14:49 25,4 16,5 29,6 16,1 1012,8 58 - 733
14:54 25,3 16,2 31,5 ssø 17,9 1012,7 57 - 207
14:59 25,2 16,1 31,5 17,4 1012,7 57 - 733
15:04 25,3 16,2 24,1 11,1 1012,6 57 - 213
15:09 25,3 16,2 33,3 23,2 1012,6 57 - 689
15:14 25,3 16,2 31,5 ssø 18,2 1012,6 57 - 745
15:19 25,4 16,3 24,1 syd 16,7 1012,6 57 - 211
15:24 25,2 16,1 27,8 øsø 15,9 1012,5 57 - 673
15:29 25,0 15,9 33,3 ssø 15,6 1012,4 57 - 236
15:34 24,9 16,4 22,5 syd 11,7 1012,4 59 - 696
15:39 25,1 16,0 29,6 sv 16,3 1012,4 57 - 239
15:44 25,0 16,2 31,5 vsv 16,9 1012,5 58 - 675
15:49 25,1 16,5 14,8 ssø 10,6 1012,5 59 - 237
15:54 25,1 16,2 25,9 ssø 17,2 1012,5 58 - 207
15:59 24,9 16,1 29,0 syd 13,5 1012,4 58 - 237
16:04 25,0 16,4 18,5 ssø 6,4 1012,3 59 - 684
16:09 25,3 16,4 22,2 11,3 1012,3 58 - 246
16:14 25,2 15,6 32,2 21,6 1012,2 55 - 197
16:19 25,1 15,7 25,9 ssø 18,3 1012,2 56 - 248
16:24 25,1 15,9 31,5 24,3 1012,3 57 - 234
16:29 24,9 15,6 33,8 syd 20,4 1012,2 56 - 309
16:34 24,9 15,8 35,2 syd 21,9 1012,2 57 - 601
16:39 25,1 15,9 29,6 syd 13,2 1012,2 57 - 427
16:44 25,1 15,4 27,8 20,1 1012,2 55 - 278
16:49 25,1 15,7 22,2 ssø 15,9 1012,2 56 - 287
16:54 25,2 15,8 31,5 ssø 15,9 1012,1 56 - 227
16:59 25,2 15,8 27,8 syd 15,0 1012,1 56 - 584
17:04 25,3 15,7 25,9 ssø 20,1 1012,1 55 - 452
17:09 25,4 15,7 25,9 ssø 15,4 1012,0 55 - 336
17:14 25,4 15,7 25,9 ssø 17,5 1012,0 55 - 211
17:19 25,3 15,6 22,5 14,6 1012,1 55 - 258
17:24 25,1 15,4 25,9 ssø 16,7 1012,0 55 - 174
17:29 25,0 15,6 20,9 øsø 12,1 1012,1 56 - 188
17:34 25,0 15,6 29,0 syd 17,5 1012,0 56 - 206
17:39 24,9 15,5 18,5 8,4 1012,1 56 - 148
17:44 24,8 15,7 29,0 ssø 13,7 1012,0 57 - 357
17:49 24,9 15,6 18,5 11,4 1011,9 56 - 346
17:54 25,0 15,6 22,2 16,7 1012,0 56 - 294
17:59 24,9 15,6 20,4 syd 11,7 1012,0 56 - 158
18:04 24,8 15,4 24,1 syd 16,6 1012,0 56 - 216
18:09 24,8 15,2 27,4 syd 13,4 1012,0 55 - 223
18:14 24,8 15,4 16,7 11,9 1011,9 56 - 265
18:19 24,8 15,1 25,9 14,2 1011,8 55 - 223
18:24 24,7 15,3 20,4 10,3 1011,8 56 - 172
18:29 24,7 15,3 16,7 øsø 8,5 1011,8 56 - 123
18:34 24,6 15,2 18,5 ssø 12,7 1011,9 56 - 218
18:39 24,6 15,5 24,1 ssø 12,2 1011,8 57 - 167
18:44 24,4 15,1 20,4 ssø 9,5 1011,8 56 - 200
18:49 24,3 15,3 11,1 syd 9,0 1011,7 57 - 183
18:54 24,3 15,6 14,8 ssø 6,4 1011,7 58 - 149
18:59 24,3 15,2 18,5 syd 9,0 1011,7 57 - 88
19:04 24,2 15,4 16,7 7,7 1011,6 58 - 65
19:09 24,2 15,4 8,0 4,7 1011,6 58 - 100
19:14 24,1 15,3 9,7 ssø 7,1 1011,6 58 - 86
19:19 24,1 15,6 19,3 9,0 1011,6 59 - 62
19:24 24,1 15,3 16,7 ssø 12,4 1011,6 58 - 54
19:29 24,1 15,8 8,0 syd 4,3 1011,6 60 - 54
19:34 24,1 15,8 5,6 ssø 3,9 1011,6 60 - 49
19:39 24,0 15,5 9,3 3,4 1011,6 59 - 42
19:44 23,9 15,4 7,4 syd 3,5 1011,7 59 - 39
19:49 23,8 15,6 9,3 syd 4,7 1011,7 60 - 39
dagens sammenfatning af torsdag 16 august 2018
tid Temp. ( °C ) Dew pt. ( °C ) vind ( km/h ) fra vindstød ( km/h ) lufttryk ( hPa ) Humid.( % ) Rainrate ( cm ) solenergi ( W/m2 )
høj25,4 18,7 37,0 sø ( 1648/4205 ) 24,3 1015,4 94 - 821
gennemsnit21,1 16,6 17,7 sø #98/238 10,3 1013,7 77 - 265 #167/238
lav16,6 15,1 3,7   0,8 1011,6 55 -  
dagens Tabular details for torsdag 16 august 2018
tid Temp. ( °C ) Dew pt. ( °C ) vind ( km/h ) fra vindstød ( km/h ) lufttryk ( hPa ) Humid.( % ) Rainrate ( cm ) solenergi ( W/m2 )
00:04 17,1 15,6 3,7 0,8 1015,0 91 - -
00:07 17,0 15,5 4,8 2,4 1015,1 91 - -
00:14 16,9 15,4 3,7 syd 0,8 1015,2 91 - -
00:19 16,9 15,4 4,8 ssø 1,8 1015,1 91 - -
00:24 16,8 15,5 5,6 ssø 4,3 1015,2 92 - -
00:29 16,8 15,5 7,4 4,8 1015,2 92 - -
00:34 16,8 15,5 7,4 ssø 5,5 1015,2 92 - -
00:39 16,8 15,7 7,4 4,5 1015,2 93 - -
00:44 16,8 15,7 5,6 2,9 1015,2 93 - -
00:49 16,7 15,4 6,4 ssø 4,0 1015,2 92 - -
00:54 16,7 15,6 5,6 4,3 1015,3 93 - -
00:59 16,6 15,5 5,6 ssø 2,1 1015,3 93 - -
01:04 16,6 15,4 5,6 ssø 2,9 1015,3 93 - -
01:09 16,6 15,7 5,6 1,6 1015,4 94 - -
01:14 16,7 15,7 5,6 ssø 1,3 1015,4 94 - -
01:19 16,7 15,8 5,6 ssø 2,7 1015,4 94 - -
01:24 16,8 15,8 8,0 ssø 6,4 1015,3 94 - -
01:29 16,8 15,7 6,4 4,0 1015,4 93 - -
01:34 16,8 15,7 5,6 5,0 1015,3 93 - -
01:39 16,9 15,9 5,6 ssø 5,5 1015,3 94 - -
01:44 16,9 15,9 5,6 2,9 1015,3 94 - -
01:49 16,9 15,9 5,6 ssø 2,6 1015,2 94 - -
01:54 17,0 16,0 5,6 øsø 3,5 1015,1 94 - -
01:59 17,1 15,9 5,6 ssø 3,2 1015,1 93 - -
02:04 17,1 15,9 5,6 3,1 1014,9 93 - -
02:09 17,1 15,9 4,8 øsø 2,9 1014,9 93 - -
02:14 17,1 15,9 6,4 4,8 1015,0 93 - -
02:19 17,1 15,9 6,4 ssø 4,2 1015,0 93 - -
02:24 17,1 15,9 7,4 ssø 5,6 1015,0 93 - -
02:29 17,2 16,0 9,7 6,4 1015,0 93 - -
02:34 17,2 16,0 11,1 ssø 7,6 1014,9 93 - -
02:39 17,2 16,1 7,4 ssø 4,5 1014,9 93 - -
02:44 17,3 16,1 4,8 2,9 1014,9 93 - -
02:49 17,3 16,1 6,4 4,5 1014,9 93 - -
02:54 17,3 16,2 8,0 ssø 7,6 1014,9 93 - -
02:59 17,3 16,2 6,4 ssø 3,4 1014,9 93 - -
03:04 17,3 16,0 5,6 ssø 1,6 1014,9 92 - -
03:09 17,3 16,0 8,0 6,0 1014,8 92 - -
03:14 17,4 16,1 7,4 2,1 1014,9 92 - -
03:19 17,4 16,1 5,6 4,2 1014,9 92 - -
03:24 17,4 16,1 9,7 ssø 5,1 1014,9 92 - -
03:29 17,4 16,1 6,4 3,4 1014,9 92 - -
03:34 17,4 16,1 7,4 4,0 1014,9 92 - -
03:39 17,5 16,2 6,4 øsø 3,4 1014,9 92 - -
03:44 17,5 16,2 8,0 6,3 1014,9 92 - -
03:49 17,5 16,2 9,7 6,1 1014,9 92 - -
03:54 17,6 16,4 8,0 ssø 4,8 1014,9 93 - -
03:59 17,6 16,4 7,4 5,8 1014,9 93 - -
04:04 17,6 16,4 11,1 7,6 1014,8 93 - -
04:09 17,7 16,3 16,7 6,3 1014,9 92 - -
04:14 17,7 16,3 11,1 8,4 1014,8 92 - -
04:19 17,7 16,4 14,8 10,3 1014,7 92 - -
04:24 17,8 16,3 9,3 ssø 7,1 1014,7 91 - -
04:29 17,8 16,3 16,7 9,5 1014,8 91 - -
04:34 17,9 16,2 14,8 9,3 1014,6 90 - -
04:39 17,9 16,3 16,1 7,1 1014,6 90 - -
04:44 17,9 16,1 16,7 12,4 1014,6 89 - -
04:49 18,0 16,2 20,4 ssø 12,7 1014,6 89 - -
04:54 18,1 16,1 16,7 8,5 1014,7 88 - -
04:59 18,2 16,2 18,5 øsø 10,9 1014,7 88 - -
05:04 18,2 16,3 14,8 ssø 10,6 1014,6 89 - -
05:09 18,2 16,5 16,7 øsø 10,1 1014,6 90 - -
05:14 18,1 16,4 14,8 ssø 10,9 1014,6 90 - -
05:19 18,0 16,3 11,3 øsø 6,6 1014,6 90 - -
05:24 18,0 16,3 16,7 8,4 1014,6 90 - -
05:29 17,9 16,3 11,1 øsø 6,1 1014,5 90 - -
05:34 17,9 16,2 9,7 øsø 5,6 1014,5 90 - -
05:39 17,9 16,2 9,3 6,1 1014,5 90 - -
05:44 17,8 16,2 11,3 øsø 6,1 1014,4 90 - -
05:49 17,8 16,2 11,1 øsø 6,0 1014,4 90 - -
05:54 17,8 16,2 9,3 5,6 1014,3 90 - -
05:59 17,8 16,2 12,9 7,1 1014,3 90 - 5
06:04 17,8 16,2 9,7 7,1 1014,3 90 - 7
06:09 17,8 16,2 14,8 6,1 1014,3 90 - 9
06:14 17,9 16,2 18,5 øsø 9,7 1014,3 90 - 11
06:19 18,0 16,5 18,5 ssø 12,1 1014,3 91 - 16
06:24 18,1 16,6 18,5 10,1 1014,3 91 - 18
06:29 18,2 16,7 16,7 13,7 1014,3 91 - 19
06:34 18,3 16,8 27,4 15,8 1014,3 91 - 26
06:39 18,3 16,7 19,3 12,1 1014,3 90 - 32
06:44 18,4 16,7 18,5 øsø 10,5 1014,2 90 - 35
06:49 18,4 16,7 18,5 øsø 11,6 1014,2 90 - 33
06:54 18,4 16,7 16,7 ssø 10,5 1014,3 90 - 35
06:59 18,4 16,9 20,4 øsø 12,4 1014,3 91 - 46
07:04 18,3 16,8 17,7 10,3 1014,3 91 - 54
07:09 18,4 16,9 18,5 øsø 9,2 1014,3 91 - 76
07:14 18,4 16,9 14,8 7,2 1014,4 91 - 60
07:19 18,5 17,0 18,5 12,2 1014,3 91 - 65
07:24 18,5 17,0 16,7 8,2 1014,3 91 - 79
07:29 18,6 17,1 11,1 8,5 1014,3 91 - 77
07:34 18,7 17,3 18,5 10,9 1014,3 92 - 86
07:39 18,7 17,3 22,2 11,4 1014,2 92 - 116
07:44 18,8 17,5 19,3 10,8 1014,2 92 - 116
07:49 18,9 17,4 20,4 øsø 13,4 1014,2 91 - 123
07:54 19,1 17,6 16,7 11,4 1014,3 91 - 113
07:59 19,2 17,7 16,7 ssø 9,7 1014,2 91 - 132
08:04 19,3 17,8 18,5 syd 10,1 1014,3 91 - 142
08:09 19,4 17,7 18,5 ssø 8,5 1014,3 90 - 155
08:14 19,6 17,9 14,8 8,7 1014,2 90 - 183
08:19 19,7 18,0 14,8 10,1 1014,2 90 - 211
08:24 19,8 17,9 20,4 ssø 13,0 1014,2 89 - 169
08:29 20,0 18,1 18,5 10,1 1014,2 89 - 149
08:34 20,1 18,1 18,5 10,8 1014,2 88 - 137
08:39 20,2 18,1 14,8 syd 8,7 1014,2 88 - 156
08:44 20,3 18,2 9,7 7,9 1014,1 88 - 128
08:49 20,3 18,3 16,7 ssø 5,5 1014,1 88 - 97
08:54 20,3 18,1 14,8 øsø 8,5 1014,1 87 - 62
08:59 20,3 18,1 16,7 syd 9,2 1014,2 87 - 49
09:04 20,3 18,1 16,7 ssø 8,2 1014,2 87 - 95
09:09 20,3 18,1 17,7 ssø 10,1 1014,1 87 - 123
09:14 20,3 18,1 14,8 7,6 1014,1 87 - 141
09:19 20,4 18,2 14,8 øsø 7,6 1014,1 87 - 167
09:24 20,4 18,0 18,5 ssø 11,9 1014,1 86 - 146
09:29 20,6 18,1 11,3 6,3 1014,1 86 - 141
09:34 20,6 18,2 14,8 ssø 6,4 1014,1 86 - 167
09:39 20,7 18,1 18,5 syd 9,7 1014,1 85 - 127
09:44 20,7 18,3 14,8 ssø 7,4 1014,1 86 - 109
09:49 20,7 18,3 16,7 ssø 8,4 1014,1 86 - 76
09:54 20,7 18,1 14,8 9,2 1014,1 85 - 181
09:59 20,8 18,3 14,8 ssø 9,0 1014,0 86 - 195
10:04 20,9 18,3 16,7 ssø 10,1 1014,0 85 - 195
10:09 21,0 18,4 14,8 ssø 8,4 1014,0 85 - 248
10:14 21,2 18,6 20,4 ssø 7,1 1013,9 85 - 234
10:19 21,3 18,7 18,5 10,3 1013,9 85 - 206
10:24 21,4 18,6 18,5 ssø 8,5 1013,9 84 - 197
10:29 21,4 18,6 18,5 ssø 12,4 1013,9 84 - 220
10:34 21,4 18,4 20,9 9,7 1013,9 83 - 192
10:39 21,4 18,2 25,9 12,2 1013,9 82 - 209
10:44 21,4 18,2 20,4 10,3 1013,8 82 - 200
10:49 21,5 18,3 20,9 10,8 1013,8 82 - 229
10:54 21,5 17,9 22,5 ssø 16,9 1013,8 80 - 230
10:59 21,6 18,0 25,9 ssø 7,2 1013,8 80 - 232
11:04 21,7 18,1 17,7 syd 10,0 1013,7 80 - 227
11:09 21,8 18,2 24,1 øsø 11,1 1013,7 80 - 243
11:14 21,9 17,7 18,5 ssø 13,5 1013,6 77 - 304
11:19 22,1 17,8 22,2 15,0 1013,6 77 - 374
11:24 22,3 17,9 18,5 14,6 1013,6 76 - 527
11:29 22,7 18,2 22,2 øsø 14,3 1013,6 76 - 439
11:34 22,9 18,1 27,8 11,3 1013,5 74 - 752
11:39 23,1 17,9 27,8 øsø 15,1 1013,5 73 - 450
11:44 23,1 18,2 24,1 18,0 1013,4 74 - 406
11:49 23,1 18,2 14,8 ssø 9,7 1013,4 74 - 274
11:54 23,1 17,9 22,2 15,6 1013,4 73 - 193
11:59 22,9 17,8 20,4 ssø 13,8 1013,4 73 - 125
12:04 22,8 17,9 16,7 syd 9,2 1013,4 74 - 204
12:09 23,0 18,3 16,7 øsø 5,1 1013,3 75 - 745
12:14 23,3 17,9 22,2 ssø 9,5 1013,2 72 - 206
12:19 23,3 17,7 20,9 ssø 13,7 1013,2 71 - 355
12:24 23,4 18,1 18,5 ssø 10,8 1013,2 72 - 309
12:29 23,5 17,7 29,6 ssø 19,5 1013,2 70 - 555
12:34 23,6 17,8 16,7 9,2 1013,1 70 - 315
12:39 23,7 17,7 25,9 ssø 14,5 1013,2 69 - 274
12:44 23,6 17,3 22,2 8,0 1013,1 68 - 229
12:49 23,6 17,6 19,3 syd 13,4 1013,0 69 - 306
12:54 23,7 17,2 31,5 21,7 1013,1 67 - 311
12:59 23,8 17,3 20,9 ssø 15,3 1013,1 67 - 295
13:04 23,8 17,3 18,5 ssø 15,4 1013,1 67 - 262
13:09 23,9 17,7 18,5 ssø 13,5 1013,0 68 - 694
13:14 24,2 17,4 27,4 ssø 15,8 1013,1 66 - 554
13:19 24,2 17,2 31,5 19,1 1013,1 65 - 325
13:24 24,1 17,1 33,3 øst 14,2 1013,0 65 - 378
13:29 24,2 17,7 13,0 8,8 1013,1 67 - 260
13:34 24,3 17,3 20,4 øsø 11,6 1013,1 65 - 454
13:39 24,4 16,9 35,2 20,4 1013,1 63 - 348
13:44 24,4 16,9 32,2 syd 17,7 1013,1 63 - 425
13:49 24,3 16,3 31,5 17,9 1013,0 61 - 341
13:54 24,3 16,1 29,6 17,2 1013,1 60 - 267
13:59 24,6 16,6 31,5 syd 19,6 1013,0 61 - 698
14:04 24,8 16,2 29,6 øsø 15,8 1012,9 59 - 710
14:09 25,1 16,5 22,2 ssø 13,8 1012,9 59 - 747
14:14 25,2 16,3 32,2 ssø 23,8 1013,0 58 - 766
14:19 25,2 16,1 30,6 syd 17,5 1012,9 57 - 821
14:24 25,2 16,1 37,0 21,9 1013,0 57 - 686
14:29 25,3 16,2 24,1 ssø 21,4 1012,9 57 - 573
14:34 25,3 16,2 35,2 16,6 1012,9 57 - 763
14:39 25,3 16,4 33,3 syd 20,0 1012,8 58 - 752
14:44 25,3 16,7 24,1 ssø 14,3 1012,8 59 - 712
14:49 25,4 16,5 29,6 16,1 1012,8 58 - 733
14:54 25,3 16,2 31,5 ssø 17,9 1012,7 57 - 207
14:59 25,2 16,1 31,5 17,4 1012,7 57 - 733
15:04 25,3 16,2 24,1 11,1 1012,6 57 - 213
15:09 25,3 16,2 33,3 23,2 1012,6 57 - 689
15:14 25,3 16,2 31,5 ssø 18,2 1012,6 57 - 745
15:19 25,4 16,3 24,1 syd 16,7 1012,6 57 - 211
15:24 25,2 16,1 27,8 øsø 15,9 1012,5 57 - 673
15:29 25,0 15,9 33,3 ssø 15,6 1012,4 57 - 236
15:34 24,9 16,4 22,5 syd 11,7 1012,4 59 - 696
15:39 25,1 16,0 29,6 sv 16,3 1012,4 57 - 239
15:44 25,0 16,2 31,5 vsv 16,9 1012,5 58 - 675
15:49 25,1 16,5 14,8 ssø 10,6 1012,5 59 - 237
15:54 25,1 16,2 25,9 ssø 17,2 1012,5 58 - 207
15:59 24,9 16,1 29,0 syd 13,5 1012,4 58 - 237
16:04 25,0 16,4 18,5 ssø 6,4 1012,3 59 - 684
16:09 25,3 16,4 22,2 11,3 1012,3 58 - 246
16:14 25,2 15,6 32,2 21,6 1012,2 55 - 197
16:19 25,1 15,7 25,9 ssø 18,3 1012,2 56 - 248
16:24 25,1 15,9 31,5 24,3 1012,3 57 - 234
16:29 24,9 15,6 33,8 syd 20,4 1012,2 56 - 309
16:34 24,9 15,8 35,2 syd 21,9 1012,2 57 - 601
16:39 25,1 15,9 29,6 syd 13,2 1012,2 57 - 427
16:44 25,1 15,4 27,8 20,1 1012,2 55 - 278
16:49 25,1 15,7 22,2 ssø 15,9 1012,2 56 - 287
16:54 25,2 15,8 31,5 ssø 15,9 1012,1 56 - 227
16:59 25,2 15,8 27,8 syd 15,0 1012,1 56 - 584
17:04 25,3 15,7 25,9 ssø 20,1 1012,1 55 - 452
17:09 25,4 15,7 25,9 ssø 15,4 1012,0 55 - 336
17:14 25,4 15,7 25,9 ssø 17,5 1012,0 55 - 211
17:19 25,3 15,6 22,5 14,6 1012,1 55 - 258
17:24 25,1 15,4 25,9 ssø 16,7 1012,0 55 - 174
17:29 25,0 15,6 20,9 øsø 12,1 1012,1 56 - 188
17:34 25,0 15,6 29,0 syd 17,5 1012,0 56 - 206
17:39 24,9 15,5 18,5 8,4 1012,1 56 - 148
17:44 24,8 15,7 29,0 ssø 13,7 1012,0 57 - 357
17:49 24,9 15,6 18,5 11,4 1011,9 56 - 346
17:54 25,0 15,6 22,2 16,7 1012,0 56 - 294
17:59 24,9 15,6 20,4 syd 11,7 1012,0 56 - 158
18:04 24,8 15,4 24,1 syd 16,6 1012,0 56 - 216
18:09 24,8 15,2 27,4 syd 13,4 1012,0 55 - 223
18:14 24,8 15,4 16,7 11,9 1011,9 56 - 265
18:19 24,8 15,1 25,9 14,2 1011,8 55 - 223
18:24 24,7 15,3 20,4 10,3 1011,8 56 - 172
18:29 24,7 15,3 16,7 øsø 8,5 1011,8 56 - 123
18:34 24,6 15,2 18,5 ssø 12,7 1011,9 56 - 218
18:39 24,6 15,5 24,1 ssø 12,2 1011,8 57 - 167
18:44 24,4 15,1 20,4 ssø 9,5 1011,8 56 - 200
18:49 24,3 15,3 11,1 syd 9,0 1011,7 57 - 183
18:54 24,3 15,6 14,8 ssø 6,4 1011,7 58 - 149
18:59 24,3 15,2 18,5 syd 9,0 1011,7 57 - 88
19:04 24,2 15,4 16,7 7,7 1011,6 58 - 65
19:09 24,2 15,4 8,0 4,7 1011,6 58 - 100
19:14 24,1 15,3 9,7 ssø 7,1 1011,6 58 - 86
19:19 24,1 15,6 19,3 9,0 1011,6 59 - 62
19:24 24,1 15,3 16,7 ssø 12,4 1011,6 58 - 54
19:29 24,1 15,8 8,0 syd 4,3 1011,6 60 - 54
19:34 24,1 15,8 5,6 ssø 3,9 1011,6 60 - 49
19:39 24,0 15,5 9,3 3,4 1011,6 59 - 42
19:44 23,9 15,4 7,4 syd 3,5 1011,7 59 - 39
19:49 23,8 15,6 9,3 syd 4,7 1011,7 60 - 39

Download your copy of this data-set  here

Our weather-data as stored at Weather Underground. script udviklet af Jim McMurry. tilpasset til dette template Leuven-Template.eu

du finder også vores vejrinformationer på:

European Weather Network

Weather Underground

AWEKAS

WeatherlinkIP

Citizen Weather Observer Program (CWOP)

udstyr som vi anvender:

vejrstation
Davis VP2+

vejrprogram
Weather Display

vejrserver
Dell E6400

hjemmeside host
Webhosting.dk

Davis VP2+

Weather Display

Dell E6400

Webhosting.dk